Time;durP1;ratioP1;P1;durP2;ratioP2;P2;SDS_P1;SDS_P2;PMS_P1;PMS_P2;Temp;Humidity;BMP_temperature;BMP_pressure;BME280_temperature;BME280_humidity;BME280_pressure;Samples;Min_cycle;Max_cycle;Signal;HPM_P1;HPM_P2
2021/09/15 00:00:26;;;;;;;12.00;7.37;;;21.90;99.90;;;;;;6247226;23;20158;-84
2021/09/15 00:02:51;;;;;;;8.80;7.90;;;21.90;99.90;;;;;;6219670;23;20471;-86
2021/09/15 00:05:17;;;;;;;14.13;7.67;;;22.00;99.90;;;;;;6219501;23;20158;-81
2021/09/15 00:07:42;;;;;;;11.03;6.93;;;21.80;99.90;;;;;;6220104;23;20511;-87
2021/09/15 00:10:08;;;;;;;11.53;7.37;;;21.70;99.90;;;;;;6219952;23;20213;-86
2021/09/15 00:12:34;;;;;;;10.07;7.73;;;21.80;99.90;;;;;;6246133;23;20222;-87
2021/09/15 00:15:00;;;;;;;8.53;7.10;;;21.60;99.90;;;;;;6219501;23;20175;-86
2021/09/15 00:17:26;;;;;;;11.67;7.97;;;21.60;99.90;;;;;;6219961;23;20149;-86
2021/09/15 00:19:51;;;;;;;9.63;7.47;;;21.70;99.90;;;;;;6246616;23;20268;-87
2021/09/15 00:22:17;;;;;;;10.03;7.30;;;21.60;99.90;;;;;;6219896;23;20201;-86
2021/09/15 00:24:42;;;;;;;11.27;8.40;;;21.40;99.90;;;;;;6246645;23;20171;-86
2021/09/15 00:27:08;;;;;;;11.57;7.90;;;21.50;99.90;;;;;;6220136;23;20159;-86
2021/09/15 00:29:34;;;;;;;12.50;7.73;;;21.40;99.90;;;;;;6219232;23;20504;-87
2021/09/15 00:31:59;;;;;;;10.73;7.23;;;21.50;99.90;;;;;;6219570;23;20587;-86
2021/09/15 00:34:29;;;;;;;11.73;7.37;;;21.50;99.90;;;;;;6219594;23;20148;-82
2021/09/15 00:36:56;;;;;;;14.73;7.80;;;21.60;99.90;;;;;;6219685;23;20273;-82
2021/09/15 00:39:21;;;;;;;10.77;7.70;;;21.60;99.90;;;;;;6246056;23;20147;-83
2021/09/15 00:41:47;;;;;;;13.80;7.60;;;21.60;99.90;;;;;;6219403;23;20147;-85
2021/09/15 00:44:14;;;;;;;9.80;6.90;;;21.60;99.90;;;;;;6245342;23;20262;-87
2021/09/15 00:46:40;;;;;;;9.53;7.17;;;21.50;99.90;;;;;;6219048;23;20595;-87
2021/09/15 00:49:07;;;;;;;9.23;6.90;;;21.40;99.90;;;;;;6219282;23;20159;-86
2021/09/15 00:51:41;;;;;;;11.50;6.97;;;21.30;99.90;;;;;;6245285;23;20131;-87
2021/09/15 00:54:08;;;;;;;10.07;6.80;;;21.30;99.90;;;;;;6246147;23;20143;-87
2021/09/15 00:56:35;;;;;;;7.67;6.43;;;21.30;99.90;;;;;;6218382;23;20162;-87
2021/09/15 00:59:01;;;;;;;10.07;7.20;;;21.40;99.90;;;;;;6218954;23;20166;-87
2021/09/15 01:01:27;;;;;;;12.70;7.30;;;21.40;99.90;;;;;;6245241;23;20155;-85
2021/09/15 01:03:53;;;;;;;12.57;7.37;;;21.50;99.90;;;;;;6245518;23;20182;-86
2021/09/15 01:06:19;;;;;;;9.17;7.20;;;21.80;99.90;;;;;;6217556;23;20181;-86
2021/09/15 01:08:45;;;;;;;11.13;7.00;;;21.80;99.90;;;;;;6217888;23;20147;-81
2021/09/15 01:11:11;;;;;;;9.70;7.23;;;21.70;99.90;;;;;;6219257;23;20577;-82
2021/09/15 01:13:38;;;;;;;9.90;7.37;;;21.70;99.90;;;;;;6245723;23;20153;-81
2021/09/15 01:16:07;;;;;;;11.87;7.73;;;21.80;99.90;;;;;;6245724;23;20139;-81
2021/09/15 01:18:33;;;;;;;9.97;7.33;;;21.70;99.90;;;;;;6219060;23;20245;-81
2021/09/15 01:20:59;;;;;;;9.03;6.97;;;21.60;99.90;;;;;;6245815;23;20604;-81
2021/09/15 01:23:25;;;;;;;12.63;7.33;;;21.80;99.90;;;;;;6219220;23;20190;-87
2021/09/15 01:25:52;;;;;;;10.47;7.77;;;21.90;99.90;;;;;;6245516;23;20139;-86
2021/09/15 01:28:17;;;;;;;13.60;7.60;;;21.90;99.90;;;;;;6245278;23;20137;-86
2021/09/15 01:30:43;;;;;;;12.10;7.27;;;21.80;99.90;;;;;;6218518;23;20181;-87
2021/09/15 01:33:11;;;;;;;11.00;7.00;;;21.80;99.90;;;;;;6245884;23;20139;-87
2021/09/15 01:35:37;;;;;;;8.90;7.03;;;22.00;99.90;;;;;;6218836;23;20238;-87
2021/09/15 01:38:03;;;;;;;10.67;7.50;;;21.90;99.90;;;;;;6218521;23;20249;-88
2021/09/15 01:40:29;;;;;;;8.80;6.83;;;21.70;99.90;;;;;;6218888;23;20186;-81
2021/09/15 01:42:54;;;;;;;10.03;7.00;;;21.60;99.90;;;;;;6218485;23;20588;-81
2021/09/15 01:45:20;;;;;;;8.93;7.17;;;21.40;99.90;;;;;;6219708;23;20151;-81
2021/09/15 01:47:45;;;;;;;10.30;7.00;;;21.30;99.90;;;;;;6247553;23;20139;-81
2021/09/15 01:50:11;;;;;;;11.30;7.60;;;21.20;99.90;;;;;;6221328;23;20231;-82
2021/09/15 01:52:38;;;;;;;11.07;7.17;;;21.10;99.90;;;;;;6220586;23;20200;-81
2021/09/15 01:55:05;;;;;;;10.07;6.37;;;21.10;99.90;;;;;;6221018;23;20154;-82
2021/09/15 01:57:31;;;;;;;10.70;7.03;;;21.10;99.90;;;;;;6220426;23;20154;-87
2021/09/15 01:59:59;;;;;;;13.43;7.30;;;21.00;99.90;;;;;;6247569;23;20154;-87
2021/09/15 02:02:25;;;;;;;7.63;6.70;;;20.90;99.90;;;;;;6220745;23;20143;-88
2021/09/15 02:04:51;;;;;;;9.40;6.40;;;20.90;99.90;;;;;;6247627;23;20184;-86
2021/09/15 02:07:16;;;;;;;12.17;6.17;;;20.80;99.90;;;;;;6220240;23;20649;-87
2021/09/15 02:09:42;;;;;;;11.83;6.90;;;20.80;99.90;;;;;;6247339;23;20142;-88
2021/09/15 02:12:08;;;;;;;9.13;7.00;;;20.90;99.90;;;;;;6220156;23;20191;-81
2021/09/15 02:14:34;;;;;;;9.93;7.00;;;20.90;99.90;;;;;;6247402;23;20144;-82
2021/09/15 02:17:00;;;;;;;12.67;7.13;;;20.80;99.90;;;;;;6220198;23;20249;-82
2021/09/15 02:19:25;;;;;;;11.77;8.23;;;20.70;99.90;;;;;;6247351;23;20559;-82
2021/09/15 02:21:51;;;;;;;11.60;8.43;;;20.70;99.90;;;;;;6220316;23;20158;-81
2021/09/15 02:24:17;;;;;;;13.57;8.10;;;20.80;99.90;;;;;;6220419;23;20183;-81
2021/09/15 02:26:44;;;;;;;14.77;8.33;;;20.80;99.90;;;;;;6219556;23;20147;-81
2021/09/15 02:29:10;;;;;;;14.73;8.87;;;20.80;99.90;;;;;;6246966;23;20161;-80
2021/09/15 02:31:35;;;;;;;14.30;9.07;;;20.90;99.90;;;;;;6220289;23;20232;-82
2021/09/15 02:34:01;;;;;;;11.73;8.50;;;20.90;99.90;;;;;;6220045;23;20158;-87
2021/09/15 02:36:27;;;;;;;12.27;9.17;;;20.90;99.90;;;;;;6219982;23;20634;-87
2021/09/15 02:38:53;;;;;;;12.93;8.73;;;21.00;99.90;;;;;;6220125;23;20177;-86
2021/09/15 02:41:19;;;;;;;15.70;10.33;;;21.00;99.90;;;;;;6219886;23;20139;-87
2021/09/15 02:43:45;;;;;;;12.70;8.67;;;20.90;99.90;;;;;;6246677;23;20183;-82
2021/09/15 02:46:11;;;;;;;16.27;9.50;;;20.90;99.90;;;;;;6220230;23;20158;-82
2021/09/15 02:48:36;;;;;;;12.23;8.97;;;20.90;99.90;;;;;;6246616;23;20138;-82
2021/09/15 02:51:02;;;;;;;12.03;8.83;;;20.90;99.90;;;;;;6220515;23;20222;-81
2021/09/15 02:53:28;;;;;;;12.53;9.07;;;20.90;99.90;;;;;;6219541;23;20203;-82
2021/09/15 02:55:54;;;;;;;11.97;8.53;;;21.00;99.90;;;;;;6219347;23;20147;-81
2021/09/15 02:58:19;;;;;;;12.87;9.10;;;20.90;99.90;;;;;;6245954;23;20606;-81
2021/09/15 03:00:45;;;;;;;12.53;9.40;;;20.80;99.90;;;;;;6220444;23;20165;-81
2021/09/15 03:03:11;;;;;;;13.03;8.93;;;20.80;99.90;;;;;;6246497;23;20245;-82
2021/09/15 03:05:36;;;;;;;14.47;8.30;;;20.80;99.90;;;;;;6219247;23;20159;-82
2021/09/15 03:08:02;;;;;;;11.10;8.33;;;20.80;99.90;;;;;;6219240;23;20151;-87
2021/09/15 03:10:29;;;;;;;13.40;9.03;;;20.90;99.90;;;;;;6219597;23;20591;-88
2021/09/15 03:12:55;;;;;;;12.77;9.13;;;20.90;99.90;;;;;;6246335;23;20139;-85
2021/09/15 03:15:21;;;;;;;13.23;9.30;;;20.90;99.90;;;;;;6246181;23;20154;-82
2021/09/15 03:17:46;;;;;;;12.17;7.93;;;20.80;99.90;;;;;;6246594;23;20178;-82
2021/09/15 03:20:12;;;;;;;13.47;8.70;;;20.90;99.90;;;;;;6245804;23;20157;-81
2021/09/15 03:22:38;;;;;;;12.63;9.13;;;21.00;99.90;;;;;;6219802;23;20154;-82
2021/09/15 03:25:05;;;;;;;13.97;8.43;;;20.90;99.90;;;;;;6218438;23;20285;-81
2021/09/15 03:27:30;;;;;;;12.67;9.40;;;20.80;99.90;;;;;;6244419;23;20241;-82
2021/09/15 03:29:56;;;;;;;14.00;9.43;;;20.80;99.90;;;;;;6216962;23;20679;-82
2021/09/15 03:32:22;;;;;;;14.27;9.20;;;20.80;99.90;;;;;;6218054;23;20178;-82
2021/09/15 03:34:47;;;;;;;16.30;10.10;;;20.90;99.90;;;;;;6219526;23;20189;-81
2021/09/15 03:37:13;;;;;;;15.90;8.97;;;20.80;99.90;;;;;;6219176;23;20190;-82
2021/09/15 03:39:39;;;;;;;12.70;8.77;;;20.80;99.90;;;;;;6219170;23;20229;-82
2021/09/15 03:42:05;;;;;;;14.07;9.30;;;20.80;99.90;;;;;;6218829;23;20193;-82
2021/09/15 03:44:32;;;;;;;11.73;8.67;;;20.90;99.90;;;;;;6245944;23;20178;-83
2021/09/15 03:46:58;;;;;;;16.50;9.50;;;20.90;99.90;;;;;;6219402;23;20230;-82
2021/09/15 03:49:24;;;;;;;17.23;10.90;;;21.00;99.90;;;;;;6219045;23;20175;-82
2021/09/15 03:51:49;;;;;;;18.40;10.87;;;21.40;99.90;;;;;;6246346;23;20590;-82
2021/09/15 03:54:16;;;;;;;15.00;10.17;;;21.70;99.90;;;;;;6219371;23;20243;-81
2021/09/15 03:56:42;;;;;;;15.80;10.80;;;21.50;99.90;;;;;;6248773;23;20147;-87
2021/09/15 03:59:08;;;;;;;14.80;10.27;;;21.20;99.90;;;;;;6249204;23;20197;-87
2021/09/15 04:01:33;;;;;;;13.03;9.90;;;21.00;99.90;;;;;;6246230;23;20163;-88
2021/09/15 04:03:59;;;;;;;14.33;10.37;;;20.90;99.90;;;;;;6219495;23;20337;-87
2021/09/15 04:06:25;;;;;;;14.03;9.87;;;20.90;99.90;;;;;;6220988;23;20147;-87
2021/09/15 04:08:51;;;;;;;15.83;9.47;;;21.00;99.90;;;;;;6219984;23;20642;-87
2021/09/15 04:11:16;;;;;;;16.13;9.60;;;21.00;99.90;;;;;;6247454;23;20142;-83
2021/09/15 04:13:42;;;;;;;12.47;9.67;;;21.00;99.90;;;;;;6220522;23;20188;-86
2021/09/15 04:16:08;;;;;;;15.33;9.63;;;21.00;99.90;;;;;;6245606;23;20217;-87
2021/09/15 04:18:33;;;;;;;13.83;9.50;;;21.00;99.90;;;;;;6246219;23;20210;-85
2021/09/15 04:20:59;;;;;;;14.87;10.13;;;20.90;99.90;;;;;;6246332;23;20142;-87
2021/09/15 04:23:29;;;;;;;10.93;8.87;;;21.00;99.90;;;;;;6218871;23;20518;-88
2021/09/15 04:31:25;;;;;;;14.37;9.13;;;21.00;99.90;;;;;;6245982;23;20192;-86
2021/09/15 04:33:52;;;;;;;14.50;9.10;;;20.90;99.90;;;;;;6219128;23;20167;-88
2021/09/15 04:36:19;;;;;;;14.53;9.33;;;20.90;99.90;;;;;;6245917;22;20292;-87
2021/09/15 04:38:45;;;;;;;12.37;8.70;;;20.90;99.90;;;;;;6245957;23;20476;-86
2021/09/15 04:41:12;;;;;;;17.10;9.30;;;20.90;99.90;;;;;;6219489;23;20154;-81
2021/09/15 04:43:37;;;;;;;14.37;10.00;;;20.90;99.90;;;;;;6219316;23;20186;-81
2021/09/15 04:46:03;;;;;;;12.53;9.00;;;20.90;99.90;;;;;;6219314;23;20162;-85
2021/09/15 04:48:29;;;;;;;12.20;8.70;;;21.10;99.90;;;;;;6218972;23;20563;-86
2021/09/15 04:50:55;;;;;;;18.87;10.07;;;21.30;99.90;;;;;;6217192;23;20204;-86
2021/09/15 04:53:21;;;;;;;12.33;9.20;;;21.40;99.90;;;;;;6244322;23;20218;-87
2021/09/15 04:55:47;;;;;;;11.87;9.03;;;21.20;99.90;;;;;;6245888;23;20142;-86
2021/09/15 04:58:12;;;;;;;12.67;9.37;;;21.20;99.90;;;;;;6219173;23;20176;-88
2021/09/15 05:00:38;;;;;;;13.87;9.67;;;21.20;99.90;;;;;;6245873;23;20634;-88
2021/09/15 05:03:04;;;;;;;13.27;9.90;;;21.30;99.90;;;;;;6215474;23;20154;-85
2021/09/15 05:05:30;;;;;;;15.27;9.23;;;21.30;99.90;;;;;;6241264;23;20154;-87
2021/09/15 05:07:56;;;;;;;14.33;9.33;;;21.20;99.90;;;;;;6218825;23;20144;-86
2021/09/15 05:10:25;;;;;;;13.93;9.53;;;21.10;99.90;;;;;;6218817;23;20482;-85
2021/09/15 05:12:57;;;;;;;13.37;9.53;;;21.00;99.90;;;;;;6219188;23;20143;-86
2021/09/15 05:15:24;;;;;;;18.90;11.67;;;21.00;99.90;;;;;;6218392;23;20151;-85
2021/09/15 05:17:51;;;;;;;13.57;10.33;;;21.40;99.90;;;;;;6244560;23;20193;-85
2021/09/15 14:26:16;;;;;;;4.67;2.03;;;23.80;99.90;;;;;;6247709;22;20277;-84
2021/09/15 14:28:42;;;;;;;5.87;2.47;;;23.90;99.90;;;;;;6220745;23;20148;-83
2021/09/15 14:31:08;;;;;;;4.57;2.40;;;23.60;99.90;;;;;;6220770;23;20568;-84
2021/09/15 14:33:33;;;;;;;4.30;2.00;;;23.50;99.90;;;;;;6247171;23;20135;-84
2021/09/15 14:36:00;;;;;;;5.30;2.20;;;23.60;99.90;;;;;;6221028;23;20204;-84
2021/09/15 14:38:26;;;;;;;3.67;2.10;;;23.70;99.90;;;;;;6220651;23;20180;-83
2021/09/15 14:40:51;;;;;;;5.10;2.10;;;23.70;99.90;;;;;;6220351;23;20151;-84
2021/09/15 14:43:17;;;;;;;3.93;1.60;;;23.70;99.90;;;;;;6220628;23;20147;-84
2021/09/15 14:45:44;;;;;;;3.23;0.97;;;23.90;99.90;;;;;;6220775;23;20182;-83
2021/09/15 14:48:09;;;;;;;2.93;1.63;;;23.90;99.90;;;;;;6220015;23;20193;-85
2021/09/15 14:50:35;;;;;;;4.47;1.33;;;23.60;99.90;;;;;;6245140;23;20159;-83
2021/09/15 14:53:01;;;;;;;3.73;1.20;;;23.50;99.90;;;;;;6244821;23;20139;-83
2021/09/15 14:55:27;;;;;;;4.50;1.57;;;23.40;99.90;;;;;;6220883;23;20471;-83
2021/09/15 14:57:53;;;;;;;3.67;1.50;;;23.30;99.90;;;;;;6220813;23;20577;-83
2021/09/15 15:00:20;;;;;;;2.23;1.37;;;23.20;99.90;;;;;;6220486;23;20146;-82
2021/09/15 15:02:46;;;;;;;4.63;1.90;;;23.10;99.90;;;;;;6222272;23;20613;-82
2021/09/15 15:05:12;;;;;;;5.57;1.97;;;22.90;99.90;;;;;;6218078;23;20285;-83
2021/09/15 15:07:37;;;;;;;7.17;2.23;;;22.80;99.90;;;;;;6217045;23;20550;-83
2021/09/15 15:10:05;;;;;;;3.50;1.70;;;22.70;99.90;;;;;;6217005;23;20294;-82
2021/09/15 15:12:31;;;;;;;4.27;1.60;;;22.80;99.90;;;;;;6216990;23;20194;-84
2021/09/15 15:14:57;;;;;;;4.90;1.37;;;22.60;99.90;;;;;;6218745;23;20154;-82
2021/09/15 15:17:23;;;;;;;6.33;1.30;;;22.50;99.90;;;;;;6219415;23;20158;-82
2021/09/15 15:19:48;;;;;;;4.97;1.33;;;22.60;99.90;;;;;;6219854;23;20684;-82
2021/09/15 15:22:14;;;;;;;3.03;1.20;;;22.70;99.90;;;;;;6217752;23;20170;-84
2021/09/15 15:24:40;;;;;;;3.63;0.90;;;22.70;99.90;;;;;;6216611;23;20659;-81
2021/09/15 15:27:06;;;;;;;3.23;1.13;;;22.70;99.90;;;;;;6217852;23;20159;-84
2021/09/15 15:29:33;;;;;;;1.73;0.70;;;22.60;99.90;;;;;;6216874;23;20155;-82
2021/09/15 15:31:58;;;;;;;2.23;0.77;;;22.60;99.90;;;;;;6219124;23;20154;-82
2021/09/15 15:34:24;;;;;;;4.50;0.70;;;22.50;99.90;;;;;;6219174;22;20474;-82
2021/09/15 15:36:52;;;;;;;3.63;1.20;;;22.40;99.90;;;;;;6219480;23;20146;-83
2021/09/15 15:39:18;;;;;;;4.57;1.47;;;22.40;99.90;;;;;;6244445;23;20536;-82
2021/09/15 15:41:46;;;;;;;4.87;0.83;;;22.40;99.90;;;;;;6218758;23;20180;-83
2021/09/15 15:44:11;;;;;;;2.47;0.80;;;22.30;99.90;;;;;;6218897;23;20182;-83
2021/09/15 15:46:38;;;;;;;5.00;0.80;;;22.10;99.90;;;;;;6219779;23;20151;-83
2021/09/15 15:49:04;;;;;;;3.50;0.60;;;22.10;99.90;;;;;;6219190;23;20164;-83
2021/09/15 15:51:30;;;;;;;3.93;0.90;;;22.10;99.90;;;;;;6219975;23;20150;-83
2021/09/15 15:53:56;;;;;;;2.83;0.50;;;22.20;99.90;;;;;;6219152;23;20196;-84
2021/09/15 15:56:22;;;;;;;4.20;0.73;;;22.10;99.90;;;;;;6218230;23;20170;-83
2021/09/15 15:58:50;;;;;;;4.03;0.70;;;22.20;99.90;;;;;;6217740;23;20150;-83
2021/09/15 16:01:16;;;;;;;5.23;0.70;;;22.20;99.90;;;;;;6217425;23;20156;-84
2021/09/15 16:03:43;;;;;;;3.13;0.50;;;22.20;99.90;;;;;;6217671;23;20253;-83
2021/09/15 16:06:09;;;;;;;5.33;0.90;;;22.00;99.90;;;;;;6245757;23;20139;-83
2021/09/15 16:08:35;;;;;;;2.30;0.70;;;21.90;99.90;;;;;;6219368;23;20233;-82
2021/09/15 16:11:00;;;;;;;5.60;1.00;;;21.90;99.90;;;;;;6219310;23;20220;-83
2021/09/15 16:13:26;;;;;;;1.90;0.80;;;21.90;99.90;;;;;;6218382;23;20482;-83
2021/09/15 16:15:53;;;;;;;2.63;0.80;;;21.90;99.90;;;;;;6217675;23;20176;-82
2021/09/15 16:18:19;;;;;;;5.30;1.07;;;21.70;99.90;;;;;;6215447;23;20189;-84
2021/09/15 16:20:45;;;;;;;4.00;0.57;;;21.80;99.90;;;;;;6216171;23;20162;-83
2021/09/15 16:23:10;;;;;;;4.17;1.00;;;21.80;99.90;;;;;;6219388;23;20232;-83
2021/09/15 16:25:36;;;;;;;2.90;1.00;;;21.60;99.90;;;;;;6218920;23;20209;-83
2021/09/15 16:28:02;;;;;;;6.33;1.17;;;21.50;99.90;;;;;;6219515;23;20148;-84
2021/09/15 16:30:27;;;;;;;3.33;1.00;;;21.40;99.90;;;;;;6246271;23;20137;-83
2021/09/15 16:32:53;;;;;;;7.27;1.23;;;21.40;99.90;;;;;;6246039;23;20689;-84
2021/09/15 16:35:19;;;;;;;6.70;1.00;;;21.30;99.90;;;;;;6219106;23;20519;-84
2021/09/15 16:37:44;;;;;;;4.93;1.07;;;21.30;99.90;;;;;;6219295;23;20143;-83
2021/09/15 16:40:12;;;;;;;8.77;1.60;;;21.40;99.90;;;;;;6219386;23;20166;-84
2021/09/15 16:42:39;;;;;;;6.40;1.30;;;21.40;99.90;;;;;;6219055;23;20202;-83
2021/09/15 16:45:06;;;;;;;6.07;1.20;;;21.40;99.90;;;;;;6219372;23;20209;-84
2021/09/15 16:47:31;;;;;;;6.57;1.10;;;21.50;99.90;;;;;;6219349;23;20227;-84
2021/09/15 16:49:58;;;;;;;2.77;0.80;;;21.40;99.90;;;;;;6246014;23;20158;-85
2021/09/15 16:52:23;;;;;;;3.73;1.27;;;21.40;99.90;;;;;;6218750;23;20225;-85
2021/09/15 16:54:49;;;;;;;4.93;1.13;;;21.50;99.90;;;;;;6217797;23;20582;-85
2021/09/15 16:57:15;;;;;;;8.60;1.37;;;21.60;99.90;;;;;;6206798;23;20533;-84
2021/09/15 16:59:42;;;;;;;8.60;1.20;;;21.60;99.90;;;;;;6217932;23;20233;-86
2021/09/15 17:02:07;;;;;;;6.23;1.10;;;21.60;99.90;;;;;;6217504;23;20160;-86
2021/09/15 17:04:33;;;;;;;5.17;0.97;;;21.40;99.90;;;;;;6244599;23;20176;-86
2021/09/15 17:07:00;;;;;;;6.07;1.40;;;21.30;99.90;;;;;;6224504;23;20195;-83
2021/09/15 17:09:25;;;;;;;2.50;0.90;;;21.10;99.90;;;;;;6225929;23;20145;-83
2021/09/15 17:11:51;;;;;;;8.33;1.27;;;21.00;99.90;;;;;;6223662;23;20163;-84
2021/09/15 17:14:33;;;;;;;3.63;1.03;;;20.90;99.90;;;;;;6224923;23;20568;-96
2021/09/15 17:17:00;;;;;;;5.27;1.70;;;20.80;99.90;;;;;;6224938;23;20148;-84
2021/09/15 17:19:25;;;;;;;4.33;1.03;;;20.70;99.90;;;;;;6223181;23;20162;-83
2021/09/15 17:21:51;;;;;;;6.30;1.17;;;20.60;99.90;;;;;;6224766;23;20237;-81
2021/09/15 17:24:17;;;;;;;7.20;1.30;;;20.50;99.90;;;;;;6223384;23;20205;-84
2021/09/15 17:26:43;;;;;;;5.40;1.83;;;20.40;99.90;;;;;;6223979;23;20147;-83
2021/09/15 17:29:08;;;;;;;6.23;1.00;;;20.40;99.90;;;;;;6225809;23;20154;-83
2021/09/15 17:31:34;;;;;;;3.87;1.30;;;20.30;99.90;;;;;;6228737;23;20170;-83
2021/09/15 17:34:00;;;;;;;4.50;1.20;;;20.30;99.90;;;;;;6225018;23;20595;-82
2021/09/15 17:36:29;;;;;;;3.80;1.60;;;20.30;99.90;;;;;;6225905;23;20175;-83
2021/09/15 17:38:55;;;;;;;7.50;1.47;;;20.30;99.90;;;;;;6228534;23;20269;-84
2021/09/15 17:41:25;;;;;;;6.53;1.50;;;20.40;99.90;;;;;;6228033;23;20220;-85
2021/09/15 17:43:52;;;;;;;9.20;2.10;;;20.40;99.90;;;;;;6218148;23;20188;-83
2021/09/15 17:46:18;;;;;;;3.77;1.30;;;20.30;99.90;;;;;;6252762;23;20540;-83
2021/09/15 17:48:44;;;;;;;6.33;1.83;;;20.10;99.90;;;;;;6229237;23;20177;-83
2021/09/15 17:51:11;;;;;;;7.73;1.70;;;20.10;99.90;;;;;;6228359;23;20154;-82
2021/09/15 17:53:37;;;;;;;6.17;1.50;;;20.20;99.90;;;;;;6226865;23;20152;-84
2021/09/15 17:56:06;;;;;;;8.37;2.03;;;20.20;99.90;;;;;;6223637;23;20967;-84
2021/09/15 17:58:36;;;;;;;7.17;2.00;;;20.10;99.90;;;;;;6225564;23;20474;-82
2021/09/15 18:01:25;;;;;;;10.37;2.43;;;20.10;99.90;;;;;;6226161;23;20159;-85
2021/09/15 18:03:56;;;;;;;5.47;1.70;;;19.90;99.90;;;;;;6204421;23;20188;-82
2021/09/15 18:06:26;;;;;;;4.90;1.80;;;19.90;99.90;;;;;;6226504;23;20157;-83
2021/09/15 18:08:52;;;;;;;5.63;1.90;;;19.90;99.90;;;;;;6224944;23;20149;-83
2021/09/15 18:11:19;;;;;;;6.30;2.23;;;19.90;99.90;;;;;;6225501;23;20152;-82
2021/09/15 18:13:44;;;;;;;5.37;1.77;;;19.90;99.90;;;;;;6223044;23;20172;-82
2021/09/15 18:16:11;;;;;;;8.33;2.10;;;19.90;99.90;;;;;;6224051;23;20143;-83
2021/09/15 18:18:41;;;;;;;6.37;2.20;;;19.90;99.90;;;;;;6226119;23;20155;-83
2021/09/15 18:21:06;;;;;;;5.03;1.77;;;19.80;99.90;;;;;;6226322;23;20140;-85
2021/09/15 18:23:33;;;;;;;6.27;1.70;;;19.80;99.90;;;;;;6226327;23;20237;-84
2021/09/15 18:25:59;;;;;;;8.57;2.20;;;19.70;99.90;;;;;;6224710;23;20607;-84
2021/09/15 18:28:26;;;;;;;5.77;1.50;;;19.70;99.90;;;;;;6226507;23;20492;-83
2021/09/15 18:30:52;;;;;;;6.33;1.43;;;19.70;99.90;;;;;;6224557;23;20201;-82
2021/09/15 18:33:21;;;;;;;4.47;1.13;;;19.80;99.90;;;;;;6223205;23;20229;-82
2021/09/15 18:35:51;;;;;;;6.97;1.53;;;19.90;99.90;;;;;;6228405;23;20184;-83
2021/09/15 18:38:17;;;;;;;6.53;1.63;;;19.80;99.90;;;;;;6225785;23;20203;-84
2021/09/15 18:40:52;;;;;;;5.10;1.30;;;19.80;99.90;;;;;;6226781;23;20152;-83
2021/09/15 18:43:20;;;;;;;6.63;1.20;;;19.80;99.90;;;;;;6223187;23;20225;-83
2021/09/15 18:45:47;;;;;;;4.53;1.10;;;19.80;99.90;;;;;;6223513;23;20189;-83
2021/09/15 18:48:20;;;;;;;4.00;1.20;;;19.70;99.90;;;;;;6225893;23;20151;-83
2021/09/15 18:50:57;;;;;;;6.40;1.50;;;19.80;99.90;;;;;;6251190;23;20132;-84
2021/09/15 18:53:32;;;;;;;5.63;1.20;;;19.80;99.90;;;;;;6219659;23;20224;-84
2021/09/15 18:55:58;;;;;;;8.50;1.20;;;19.80;99.90;;;;;;6223060;23;20158;-83
2021/09/15 18:58:25;;;;;;;7.67;1.20;;;19.90;99.90;;;;;;6221348;23;20149;-83
2021/09/15 19:00:52;;;;;;;4.60;1.60;;;20.00;99.90;;;;;;6219916;23;20163;-83
2021/09/15 19:03:28;;;;;;;2.63;1.00;;;20.00;99.90;;;;;;6220624;23;20137;-82
2021/09/15 19:05:56;;;;;;;3.17;0.93;;;20.10;99.90;;;;;;6220011;23;20175;-83
2021/09/15 19:08:23;;;;;;;4.43;1.00;;;20.00;99.90;;;;;;6219665;23;20259;-83
2021/09/15 19:10:56;;;;;;;5.53;1.20;;;19.90;99.90;;;;;;6246455;23;20142;-81
2021/09/15 19:13:25;;;;;;;5.53;0.90;;;19.90;99.90;;;;;;6217826;23;20151;-80
2021/09/15 19:15:51;;;;;;;5.13;1.30;;;20.00;99.90;;;;;;6246985;23;20136;-82
2021/09/15 19:18:16;;;;;;;5.87;1.20;;;20.00;99.90;;;;;;6220112;23;20190;-83
2021/09/15 19:20:47;;;;;;;3.93;1.03;;;20.10;99.90;;;;;;6219182;23;20171;-82
2021/09/15 19:23:17;;;;;;;4.60;1.00;;;20.20;99.90;;;;;;6216701;23;20226;-82
2021/09/15 19:26:13;;;;;;;4.90;1.30;;;20.30;99.90;;;;;;6220368;23;20190;-83
2021/09/15 19:28:39;;;;;;;5.13;1.30;;;20.30;99.90;;;;;;6244062;23;20160;-84
2021/09/15 19:31:09;;;;;;;3.17;1.10;;;20.20;99.90;;;;;;6246918;23;20146;-82
2021/09/15 19:33:35;;;;;;;4.73;1.03;;;20.20;99.90;;;;;;6220106;23;20160;-84
2021/09/15 19:36:04;;;;;;;5.40;1.17;;;20.10;99.90;;;;;;6219848;23;20179;-84
2021/09/15 19:38:30;;;;;;;6.33;1.50;;;20.00;99.90;;;;;;6219661;23;20145;-83
2021/09/15 19:40:56;;;;;;;4.10;0.90;;;20.00;99.90;;;;;;6220308;23;20155;-83
2021/09/15 19:43:22;;;;;;;9.63;1.37;;;19.80;99.90;;;;;;6219872;23;20195;-83
2021/09/15 19:45:51;;;;;;;6.27;1.10;;;19.80;99.90;;;;;;6216621;23;20187;-85
2021/09/15 19:48:20;;;;;;;6.63;1.00;;;19.80;99.90;;;;;;6217050;23;20241;-84
2021/09/15 19:50:46;;;;;;;4.73;0.90;;;19.80;99.90;;;;;;6219104;23;20155;-84
2021/09/15 19:53:15;;;;;;;4.87;1.00;;;19.80;99.90;;;;;;6220243;23;20144;-84
2021/09/15 19:55:41;;;;;;;5.03;1.63;;;19.80;99.90;;;;;;6246798;23;20132;-83
2021/09/15 19:58:08;;;;;;;2.53;0.93;;;19.80;99.90;;;;;;6220117;23;20167;-83
2021/09/15 20:00:35;;;;;;;8.47;1.27;;;19.70;99.90;;;;;;6220228;23;20150;-84
2021/09/15 20:03:03;;;;;;;6.50;1.00;;;19.80;99.90;;;;;;6220393;23;20155;-84
2021/09/15 20:05:29;;;;;;;2.50;1.30;;;19.70;99.90;;;;;;6219015;23;20198;-83
2021/09/15 20:07:58;;;;;;;5.47;1.43;;;19.60;99.90;;;;;;6246259;23;20179;-83
2021/09/15 20:10:24;;;;;;;5.77;1.27;;;19.50;99.90;;;;;;6217649;23;20155;-84
2021/09/15 20:12:52;;;;;;;6.10;1.10;;;19.50;99.90;;;;;;6219312;23;20143;-83
2021/09/15 20:15:19;;;;;;;4.43;1.10;;;19.40;99.90;;;;;;6219472;23;20537;-84
2021/09/15 20:17:47;;;;;;;4.73;1.17;;;19.30;99.90;;;;;;6218829;23;20152;-83
2021/09/15 20:20:14;;;;;;;6.93;1.33;;;19.30;99.90;;;;;;6217456;23;20155;-84
2021/09/15 20:22:41;;;;;;;2.63;1.17;;;19.30;99.90;;;;;;6217306;23;20221;-83
2021/09/15 20:25:07;;;;;;;4.57;1.30;;;19.20;99.90;;;;;;6217859;23;20194;-85
2021/09/15 20:27:39;;;;;;;4.93;1.13;;;19.00;99.90;;;;;;6237002;23;20524;-83
2021/09/15 20:30:05;;;;;;;3.83;1.53;;;19.00;99.90;;;;;;6243121;23;20612;-83
2021/09/15 20:32:38;;;;;;;11.53;1.43;;;19.00;99.90;;;;;;6218768;23;20156;-83
2021/09/15 20:35:10;;;;;;;4.17;1.33;;;19.10;99.90;;;;;;6217640;23;20225;-82
2021/09/15 20:37:36;;;;;;;3.80;1.20;;;19.00;99.90;;;;;;6250487;23;20186;-84
2021/09/15 20:40:05;;;;;;;6.37;1.53;;;19.00;99.90;;;;;;6222780;23;20162;-82
2021/09/15 20:42:31;;;;;;;4.80;1.50;;;19.00;99.90;;;;;;6224065;23;20143;-82
2021/09/15 20:44:59;;;;;;;3.80;1.20;;;18.90;99.90;;;;;;6227644;23;20189;-84
2021/09/15 20:47:30;;;;;;;8.10;1.40;;;18.70;99.90;;;;;;6224587;23;20147;-83
2021/09/15 20:49:56;;;;;;;4.53;1.70;;;18.70;99.90;;;;;;6222709;23;20269;-83
2021/09/15 20:52:23;;;;;;;3.00;1.30;;;18.70;99.90;;;;;;6222000;23;20155;-83
2021/09/15 20:54:49;;;;;;;3.77;1.30;;;18.60;99.90;;;;;;6218471;23;20151;-83
2021/09/15 20:57:14;;;;;;;7.10;1.47;;;18.50;99.90;;;;;;6218888;23;20215;-83
2021/09/15 20:59:40;;;;;;;5.83;1.53;;;18.50;99.90;;;;;;6222094;23;20511;-82
2021/09/15 21:02:06;;;;;;;7.53;1.50;;;18.50;99.90;;;;;;6220550;23;20211;-82
2021/09/15 21:04:32;;;;;;;6.37;1.83;;;18.50;99.90;;;;;;6221078;23;20182;-83
2021/09/15 21:06:57;;;;;;;9.50;1.47;;;18.50;99.90;;;;;;6220292;23;20144;-84
2021/09/15 21:09:24;;;;;;;6.00;1.70;;;18.40;99.90;;;;;;6219455;23;20153;-83
2021/09/15 21:11:49;;;;;;;4.97;1.60;;;18.40;99.90;;;;;;6219404;23;20151;-82
2021/09/15 21:14:15;;;;;;;7.43;1.60;;;18.40;99.90;;;;;;6218828;23;20236;-83
2021/09/15 21:16:40;;;;;;;7.30;1.43;;;18.50;99.90;;;;;;6222488;23;20173;-83
2021/09/15 21:19:06;;;;;;;7.53;1.53;;;18.30;99.90;;;;;;6225830;23;20148;-83
2021/09/15 21:21:32;;;;;;;3.97;1.23;;;18.40;99.90;;;;;;6221109;23;20486;-83
2021/09/15 21:23:57;;;;;;;4.40;1.50;;;18.50;99.90;;;;;;6218346;23;20178;-83
2021/09/15 21:26:23;;;;;;;3.57;1.27;;;18.40;99.90;;;;;;6218909;23;20193;-82
2021/09/15 21:28:49;;;;;;;3.23;1.20;;;18.30;99.90;;;;;;6241469;23;20481;-82
2021/09/15 21:31:15;;;;;;;6.93;1.17;;;18.00;99.90;;;;;;6244651;23;20233;-82
2021/09/15 21:33:40;;;;;;;4.63;1.27;;;18.00;99.90;;;;;;6221486;23;20148;-82
2021/09/15 21:36:07;;;;;;;4.33;1.37;;;17.90;99.90;;;;;;6224209;23;20179;-83
2021/09/15 21:38:32;;;;;;;4.43;1.10;;;17.80;99.90;;;;;;6219744;23;20159;-84
2021/09/15 21:40:58;;;;;;;5.83;1.40;;;17.90;99.90;;;;;;6220340;23;20614;-83
2021/09/15 21:43:24;;;;;;;4.67;1.40;;;18.20;99.90;;;;;;6218364;23;20159;-82
2021/09/15 21:45:50;;;;;;;2.83;1.40;;;18.40;99.90;;;;;;6221691;23;20525;-82
2021/09/15 21:48:15;;;;;;;7.03;1.50;;;18.20;99.90;;;;;;6222891;23;20144;-85
2021/09/15 21:50:41;;;;;;;3.93;1.67;;;18.10;99.90;;;;;;6221139;23;20160;-83